createdAt,value
2023-03-06T04:15:57.760Z,31.07
2023-03-06T04:16:57.814Z,31.00
2023-03-06T04:17:57.890Z,29.91
2023-03-06T04:18:57.936Z,29.15
2023-03-06T04:19:58.111Z,29.30
2023-03-06T04:20:58.040Z,28.21
2023-03-06T04:21:58.113Z,30.66
2023-03-06T04:22:58.166Z,32.02
2023-03-06T04:23:58.222Z,30.72
2023-03-06T04:24:58.314Z,30.52
2023-03-06T04:25:58.407Z,30.65
2023-03-06T04:26:58.493Z,32.95
2023-03-06T04:27:58.574Z,30.16
2023-03-06T04:28:58.654Z,32.62
2023-03-06T04:29:58.724Z,33.39
2023-03-06T04:30:58.811Z,29.75
2023-03-06T04:31:58.862Z,30.88
2023-03-06T04:32:58.896Z,30.79
2023-03-06T04:33:58.927Z,33.83
2023-03-06T04:34:58.959Z,28.91
2023-03-06T04:35:58.994Z,31.31
2023-03-06T04:36:59.073Z,28.88
2023-03-06T04:37:59.158Z,27.69
2023-03-06T04:38:59.282Z,28.90
2023-03-06T04:39:59.259Z,29.16
2023-03-06T04:40:59.333Z,34.13
2023-03-06T04:41:59.412Z,28.43
2023-03-06T04:42:59.492Z,32.37
2023-03-06T04:43:59.560Z,30.73
2023-03-06T04:44:59.614Z,31.65
2023-03-06T04:45:59.735Z,31.40
2023-03-06T06:22:07.729Z,26.75
2023-03-06T06:23:07.760Z,25.67
2023-03-06T06:24:07.789Z,27.93
2023-03-06T06:25:07.821Z,27.09
2023-03-06T06:26:08.680Z,27.86
2023-03-06T06:27:07.905Z,27.33
2023-03-06T06:28:07.990Z,31.01
2023-03-06T06:29:08.078Z,35.45
2023-03-06T06:30:08.161Z,43.61
2023-03-06T06:31:08.312Z,38.15
2023-03-06T06:32:08.408Z,38.44
2023-03-06T06:33:08.405Z,42.30
2023-03-06T06:34:08.507Z,44.12
2023-03-06T06:35:08.579Z,47.89
2023-03-06T06:36:08.675Z,45.36
2023-03-06T06:37:08.759Z,50.81
2023-03-06T06:38:08.814Z,52.58
2023-03-06T06:39:08.907Z,55.61
2023-03-06T06:40:08.980Z,53.68
2023-03-06T06:41:36.019Z,52.86
2023-03-06T06:42:29.852Z,53.13
2023-03-06T06:43:10.100Z,53.30
2023-03-06T06:44:09.119Z,55.07
2023-03-06T06:45:09.135Z,56.75
2023-03-06T06:46:36.382Z,59.09
2023-03-06T06:47:26.119Z,53.39
2023-03-06T06:48:10.241Z,53.58
2023-03-06T06:49:09.267Z,55.84
2023-03-06T06:50:09.218Z,57.02
2023-03-06T06:51:09.230Z,59.41
2023-03-06T06:52:09.247Z,60.95
2023-03-06T06:53:09.260Z,60.77
2023-03-06T06:54:09.286Z,66.17
2023-03-06T06:55:09.306Z,63.06
2023-03-06T06:56:09.321Z,62.93
2023-03-06T06:57:09.345Z,60.78
2023-03-06T06:58:09.397Z,61.04
2023-03-06T06:59:16.563Z,63.97
2023-03-06T07:00:10.412Z,64.27
2023-03-06T07:01:09.449Z,64.26
2023-03-06T07:02:09.448Z,65.53
2023-03-06T07:03:09.464Z,62.17
2023-03-06T07:04:09.491Z,63.00
2023-03-06T07:05:09.511Z,66.99
2023-03-06T07:06:09.522Z,65.78
2023-03-06T07:07:09.533Z,65.23
2023-03-06T07:08:09.541Z,68.24
2023-03-06T07:09:09.635Z,67.78
2023-03-06T07:10:09.727Z,64.23
2023-03-06T07:11:09.819Z,65.77
2023-03-06T07:12:09.901Z,65.12
2023-03-06T07:13:09.995Z,64.25
2023-03-06T07:14:10.069Z,65.20
2023-03-06T07:15:10.137Z,63.74
2023-03-06T07:16:10.244Z,66.25
2023-03-06T07:17:10.235Z,65.66
2023-03-06T07:18:10.292Z,66.11
2023-03-06T09:41:16.918Z,204.06
2023-03-06T09:58:17.581Z,194.67
2023-03-06T09:59:17.584Z,196.22
2023-03-06T10:00:17.614Z,196.70
2023-03-06T10:01:17.675Z,193.97
2023-03-06T10:02:17.825Z,197.03
2023-03-06T10:03:18.057Z,195.88
2023-03-06T10:04:17.885Z,193.40
2023-03-06T10:05:17.964Z,195.65
2023-03-06T10:06:18.036Z,194.69
2023-03-06T10:07:18.098Z,192.82
2023-03-06T10:08:18.145Z,195.77
2023-03-06T10:09:18.157Z,193.02
2023-03-06T10:10:18.205Z,192.69
2023-03-06T10:11:18.240Z,193.60
2023-03-06T10:12:18.317Z,194.07
2023-03-06T10:13:18.394Z,191.95
2023-03-06T10:14:18.465Z,196.36
2023-03-06T10:16:18.620Z,191.81
2023-03-06T10:17:18.715Z,195.13
2023-03-06T10:18:18.799Z,192.20
2023-03-06T10:19:18.882Z,191.69
2023-03-06T10:20:18.960Z,189.68
2023-03-06T10:21:19.642Z,186.41
2023-03-06T10:22:19.095Z,187.70
2023-03-06T10:24:19.248Z,186.46
2023-03-06T10:25:19.317Z,187.35
2023-03-06T10:26:19.437Z,185.97
2023-03-06T10:27:19.523Z,186.99
2023-03-06T10:28:19.536Z,187.28
2023-03-06T10:29:20.340Z,185.21
2023-03-06T10:35:20.322Z,178.22
2023-03-06T10:43:20.753Z,176.02
2023-03-06T11:32:23.377Z,194.79
2023-03-06T11:33:23.364Z,192.31
2023-03-06T11:34:23.392Z,194.57
2023-03-06T11:35:23.447Z,197.30
2023-03-06T11:36:23.478Z,198.07
2023-03-06T11:37:23.577Z,202.00
2023-03-06T11:38:23.556Z,204.24
2023-03-06T11:39:23.594Z,200.43
2023-03-06T11:40:23.626Z,201.00
2023-03-06T11:41:23.659Z,199.95
2023-03-06T11:42:23.697Z,204.43
2023-03-06T11:43:23.726Z,201.81
2023-03-06T11:44:23.767Z,201.91
2023-03-06T11:45:23.807Z,208.78
2023-03-06T11:46:23.887Z,205.81
2023-03-06T11:47:23.876Z,210.48
2023-03-06T11:48:23.916Z,211.67
2023-03-06T11:49:23.982Z,214.38
2023-03-06T11:50:23.987Z,209.55
2023-03-06T11:51:24.018Z,214.30
2023-03-06T11:52:24.056Z,215.75
2023-03-06T11:53:24.783Z,214.12
2023-03-06T11:54:24.129Z,218.24
2023-03-06T11:55:24.170Z,219.00
2023-03-06T11:56:24.210Z,220.63
2023-03-06T11:57:24.243Z,221.92
2023-03-06T11:58:24.279Z,225.37
2023-03-06T11:59:24.334Z,227.47
2023-03-06T12:00:24.354Z,226.42
2023-03-06T12:01:24.409Z,226.15
2023-03-06T12:02:24.487Z,228.87
2023-03-06T12:03:24.479Z,229.95
2023-03-06T12:04:24.526Z,227.57
2023-03-06T14:24:33.380Z,125.67
2023-03-06T14:25:33.396Z,125.42
2023-03-06T14:26:33.441Z,124.72
2023-03-06T14:27:33.491Z,126.04
2023-03-06T14:28:33.538Z,125.84
2023-03-06T14:29:33.590Z,124.80
2023-03-06T14:30:33.635Z,126.54
2023-03-06T14:31:33.842Z,123.28
2023-03-06T14:32:33.725Z,125.80
2023-03-06T14:33:33.716Z,125.31
2023-03-06T14:34:33.777Z,124.41
2023-03-06T14:35:33.858Z,122.47
2023-03-06T14:36:33.937Z,125.04
2023-03-06T14:37:34.015Z,126.37
2023-03-06T14:38:34.088Z,124.62
2023-03-06T14:39:34.152Z,124.72
2023-03-06T14:40:34.230Z,126.39
2023-03-06T14:41:34.294Z,126.62
2023-03-06T14:42:34.383Z,126.07
2023-03-06T14:43:34.450Z,125.47
2023-03-06T14:44:34.528Z,127.26
2023-03-06T14:45:34.606Z,127.34
2023-03-06T14:46:34.714Z,123.76
2023-03-06T14:47:34.787Z,127.83
2023-03-06T14:48:34.856Z,125.89
2023-03-06T14:49:34.931Z,124.16
2023-03-06T14:50:34.985Z,125.62
2023-03-06T14:51:35.062Z,125.18
2023-03-06T14:52:35.147Z,121.28
2023-03-06T14:53:35.216Z,125.60
2023-03-06T14:54:35.303Z,124.09
2023-03-06T14:55:35.442Z,126.01
2023-03-06T14:56:35.403Z,125.10
2023-03-06T14:57:35.467Z,125.28
2023-03-06T14:58:35.524Z,122.70
2023-03-06T15:00:35.723Z,120.72
2023-03-06T15:01:35.725Z,125.90
2023-03-06T15:02:35.799Z,120.79
2023-03-06T15:03:35.714Z,123.42
2023-03-06T15:04:35.770Z,123.70
2023-03-06T15:05:35.807Z,124.32
2023-03-06T15:06:35.842Z,125.76
2023-03-06T15:07:35.870Z,120.66
2023-03-06T15:08:35.887Z,123.91
2023-03-06T15:09:35.954Z,121.96
2023-03-06T15:10:36.026Z,122.55
2023-03-06T15:11:36.118Z,122.70
2023-03-06T18:55:43.299Z,101.39
2023-03-06T18:56:43.337Z,98.66
2023-03-06T18:57:43.373Z,94.37
2023-03-06T18:58:43.408Z,97.02
2023-03-06T18:59:43.446Z,98.09
2023-03-06T19:00:43.529Z,97.65
2023-03-06T19:01:43.532Z,98.44
2023-03-06T19:02:43.580Z,96.83
2023-03-06T19:03:43.662Z,97.05
2023-03-06T19:04:43.664Z,94.43
2023-03-06T19:05:43.715Z,96.59
2023-03-06T19:06:43.727Z,97.31
2023-03-06T19:07:43.766Z,94.60
2023-03-06T19:08:43.805Z,94.99
2023-03-06T19:09:43.864Z,94.80
2023-03-06T19:10:43.892Z,92.98
2023-03-06T19:11:43.920Z,97.09
2023-03-06T19:12:43.961Z,91.98
2023-03-06T19:13:44.001Z,94.58
2023-03-06T19:14:44.052Z,93.48
2023-03-06T19:15:44.077Z,96.75
2023-03-06T19:16:44.175Z,93.02
2023-03-06T19:17:44.175Z,95.20
2023-03-06T19:18:44.201Z,93.85
2023-03-06T19:19:44.232Z,97.44
2023-03-06T19:20:44.274Z,92.30
2023-03-06T19:21:44.316Z,95.97
2023-03-06T19:22:44.359Z,94.41
2023-03-06T19:23:44.407Z,95.67
2023-03-06T19:24:44.436Z,93.63
2023-03-06T19:25:44.471Z,93.87
2023-03-06T19:26:44.559Z,95.42
2023-03-06T19:27:44.570Z,92.81
2023-03-06T19:28:44.600Z,97.34
2023-03-06T19:29:44.636Z,91.13
2023-03-06T19:30:44.671Z,95.64
2023-03-06T19:31:44.728Z,92.87
2023-03-06T19:32:44.800Z,91.13
2023-03-06T19:33:44.789Z,91.59
2023-03-06T19:34:44.828Z,92.99
2023-03-06T19:35:44.977Z,91.60
2023-03-06T19:36:44.906Z,92.75
2023-03-06T19:37:44.943Z,94.11
2023-03-06T19:38:44.988Z,89.85
2023-03-06T19:39:45.039Z,92.65
2023-03-06T19:40:45.061Z,94.90
2023-03-06T19:41:45.116Z,92.81
2023-03-06T19:42:45.157Z,88.71
2023-03-06T19:43:45.186Z,91.79
2023-03-06T19:44:45.222Z,88.19
2023-03-06T19:45:45.309Z,92.89
2023-03-06T19:46:45.313Z,96.03
2023-03-06T19:47:45.342Z,92.84
2023-03-06T19:48:45.379Z,94.52
2023-03-06T19:49:45.421Z,92.46
2023-03-06T19:50:45.460Z,93.85
2023-03-06T19:51:45.499Z,92.73
2023-03-06T19:52:45.547Z,88.72
2023-03-06T19:53:45.596Z,92.59
2023-03-06T19:54:45.634Z,92.78
2023-03-06T19:55:45.789Z,88.90
2023-03-06T19:56:45.722Z,91.21
2023-03-06T19:57:45.769Z,91.80
2023-03-06T19:58:45.797Z,93.57
2023-03-06T19:59:45.847Z,91.70
2023-03-06T20:00:45.897Z,89.65
2023-03-06T20:01:46.044Z,90.36
2023-03-06T20:02:46.095Z,90.46
2023-03-06T20:03:46.030Z,89.91
2023-03-06T20:04:46.085Z,92.77
2023-03-06T20:05:46.119Z,89.88
2023-03-06T20:06:46.139Z,91.96
2023-03-06T20:07:46.192Z,91.77
2023-03-06T20:08:46.246Z,89.08
2023-03-06T20:09:46.265Z,92.45
2023-03-06T20:10:46.297Z,92.16
2023-03-06T20:11:46.332Z,88.73
2023-03-06T20:12:46.442Z,92.06
2023-03-06T20:13:47.912Z,89.93
2023-03-06T20:14:46.437Z,92.80
2023-03-06T20:15:46.505Z,91.05
2023-03-06T20:16:46.546Z,89.11
2023-03-06T20:17:46.588Z,92.48
2023-03-06T20:18:46.635Z,87.78
2023-03-06T20:19:46.628Z,89.32
2023-03-06T20:20:46.668Z,89.58
2023-03-06T20:21:46.794Z,89.98
2023-03-06T20:22:46.754Z,91.94
2023-03-06T20:23:46.781Z,89.92
2023-03-06T20:24:46.827Z,92.75
2023-03-06T20:25:46.861Z,89.78
2023-03-06T20:26:46.897Z,91.09
2023-03-06T20:27:46.927Z,91.71
2023-03-06T20:28:46.965Z,90.51
2023-03-06T20:29:47.003Z,90.55
2023-03-06T20:30:47.057Z,92.27
2023-03-06T20:31:47.086Z,88.52
2023-03-06T20:32:47.118Z,90.94
2023-03-06T20:33:47.170Z,92.25
2023-03-06T20:34:47.205Z,88.96
2023-03-06T20:35:47.242Z,88.50
2023-03-06T20:36:47.285Z,91.10
2023-03-06T20:37:47.306Z,89.76
2023-03-06T20:38:47.357Z,89.95
2023-03-06T20:39:47.386Z,90.32
2023-03-06T20:40:47.431Z,88.99
2023-03-06T20:41:47.466Z,91.76
2023-03-06T20:42:47.529Z,87.82
2023-03-06T20:43:47.551Z,88.59
2023-03-06T20:44:47.592Z,91.42
2023-03-06T20:45:47.637Z,88.29
2023-03-06T20:46:47.711Z,88.78
2023-03-06T20:47:47.726Z,87.89
2023-03-06T20:48:47.762Z,90.60
2023-03-06T20:49:47.812Z,87.46
2023-03-06T20:50:47.848Z,94.04
2023-03-06T20:51:47.904Z,89.17
2023-03-06T20:52:47.941Z,87.86
2023-03-06T20:53:48.119Z,92.26
2023-03-06T20:54:48.028Z,87.80
2023-03-06T20:55:49.969Z,89.46
2023-03-06T20:56:48.117Z,89.47
2023-03-06T20:57:48.162Z,92.47
2023-03-06T20:58:48.209Z,89.00
2023-03-06T20:59:48.252Z,88.09
2023-03-06T21:00:48.285Z,90.66
2023-03-06T21:01:48.375Z,85.73
2023-03-06T21:02:48.378Z,86.77
2023-03-06T21:03:48.404Z,88.24
2023-03-06T21:04:48.485Z,92.56
2023-03-06T21:05:48.496Z,87.51
2023-03-06T21:06:48.531Z,88.46
2023-03-06T21:07:48.578Z,86.21
2023-03-06T21:08:48.628Z,87.04
2023-03-06T21:09:48.650Z,84.95
2023-03-06T21:10:48.703Z,90.33
2023-03-06T21:11:48.735Z,87.61
2023-03-06T21:12:48.800Z,86.38
2023-03-06T21:13:48.828Z,89.17
2023-03-06T21:14:48.868Z,86.17
2023-03-06T21:15:48.969Z,84.04
2023-03-06T21:16:48.956Z,86.65
2023-03-06T21:17:49.002Z,86.43
2023-03-06T21:18:49.043Z,86.50
2023-03-06T21:19:49.081Z,89.36
2023-03-06T21:20:49.132Z,85.81
2023-03-06T21:21:49.173Z,85.05
2023-03-06T21:22:49.212Z,89.09
2023-03-06T21:23:49.255Z,86.55
2023-03-06T21:24:49.308Z,84.67
2023-03-06T21:25:49.348Z,83.51
2023-03-06T21:26:49.382Z,86.75
2023-03-06T21:27:49.422Z,86.31
2023-03-06T21:28:49.471Z,89.68
2023-03-06T21:29:49.502Z,86.08
2023-03-06T21:30:49.547Z,86.22
2023-03-06T21:31:49.595Z,84.98
2023-03-06T21:32:49.640Z,86.32
2023-03-06T21:33:49.672Z,86.29
2023-03-06T21:34:49.717Z,86.97
2023-03-06T21:35:49.804Z,88.76
2023-03-06T21:36:49.787Z,86.21
2023-03-06T21:37:49.906Z,86.99
2023-03-06T21:38:49.886Z,83.27
2023-03-06T21:39:49.916Z,84.22
2023-03-06T21:40:49.963Z,82.26
2023-03-06T21:41:50.014Z,89.26
2023-03-06T21:42:50.044Z,83.71
2023-03-06T21:43:50.083Z,83.62
2023-03-06T21:44:50.139Z,86.23
2023-03-06T21:45:50.234Z,88.30
2023-03-06T21:46:50.231Z,87.43
2023-03-06T21:47:50.268Z,82.15
2023-03-06T21:48:50.313Z,83.85
2023-03-06T21:49:50.361Z,83.72
2023-03-06T21:50:50.408Z,85.31
2023-03-06T21:51:50.449Z,84.48
2023-03-06T21:52:50.514Z,85.95
2023-03-06T21:53:50.549Z,82.51
2023-03-06T21:54:50.586Z,84.60
2023-03-06T21:55:50.641Z,86.26
2023-03-06T21:56:50.681Z,81.26
2023-03-06T21:57:50.730Z,84.26
2023-03-06T21:58:50.779Z,84.22
2023-03-06T21:59:50.822Z,85.67
2023-03-06T22:00:50.929Z,83.44
2023-03-06T22:01:50.921Z,82.91
2023-03-06T22:02:50.954Z,83.28
2023-03-06T22:03:51.009Z,83.86
2023-03-06T22:58:53.295Z,72.76
2023-03-06T22:59:53.325Z,76.76
2023-03-06T23:00:53.371Z,75.18
2023-03-06T23:01:53.362Z,75.24
2023-03-06T23:02:53.404Z,78.09
2023-03-06T23:03:53.448Z,75.75
2023-03-06T23:04:53.502Z,75.69
2023-03-06T23:05:53.553Z,74.95
2023-03-06T23:06:53.608Z,77.63
2023-03-06T23:07:53.665Z,77.36
2023-03-06T23:08:53.713Z,74.60
2023-03-06T23:09:53.764Z,76.94
2023-03-06T23:10:53.803Z,80.98
2023-03-06T23:11:53.860Z,77.01
2023-03-06T23:12:53.945Z,76.46
2023-03-06T23:13:53.958Z,76.17
2023-03-06T23:14:54.070Z,72.05
2023-03-06T23:15:54.100Z,78.64
2023-03-06T23:16:54.099Z,77.03
2023-03-06T23:17:54.155Z,74.00
2023-03-06T23:18:54.202Z,75.62
2023-03-06T23:19:54.242Z,75.12
2023-03-06T23:20:54.290Z,75.61
2023-03-06T23:21:54.340Z,74.83
2023-03-06T23:22:54.392Z,79.02
2023-03-06T23:23:54.428Z,78.78
2023-03-06T23:24:54.477Z,77.25
2023-03-06T23:25:54.515Z,77.07
2023-03-06T23:26:54.557Z,74.28
2023-03-06T23:27:54.602Z,72.90
2023-03-06T23:28:54.644Z,76.21
2023-03-06T23:29:54.692Z,71.71
2023-03-06T23:30:54.779Z,71.93
2023-03-06T23:31:54.786Z,72.38
2023-03-06T23:32:54.820Z,76.38
2023-03-06T23:33:54.866Z,76.49
2023-03-06T23:34:54.907Z,71.18
2023-03-06T23:35:55.042Z,72.77
2023-03-06T23:36:54.986Z,74.57
2023-03-06T23:37:55.031Z,73.69
2023-03-06T23:38:55.076Z,74.22
2023-03-06T23:39:55.120Z,72.07
2023-03-06T23:40:55.162Z,74.56
2023-03-06T23:41:55.208Z,73.83
2023-03-06T23:42:55.271Z,72.45
2023-03-06T23:43:55.494Z,70.96
2023-03-06T23:44:55.347Z,72.87
2023-03-06T23:45:55.424Z,69.81
2023-03-06T23:46:55.433Z,73.69
2023-03-06T23:47:55.477Z,72.21
2023-03-06T23:48:55.515Z,74.04
2023-03-06T23:49:55.560Z,70.87
2023-03-06T23:50:55.601Z,72.19
2023-03-06T23:51:55.645Z,73.31
2023-03-06T23:52:55.691Z,72.66
2023-03-06T23:53:55.733Z,75.70
2023-03-06T23:54:55.792Z,73.36
2023-03-06T23:55:55.828Z,70.28
2023-03-06T23:56:55.870Z,70.03
2023-03-06T23:57:55.908Z,70.56
2023-03-06T23:58:55.965Z,67.61
2023-03-06T23:59:55.995Z,69.28
